Time;durP1;ratioP1;P1;durP2;ratioP2;P2;SDS_P1;SDS_P2;PMS_P1;PMS_P2;Temp;Humidity;BMP_temperature;BMP_pressure;BME280_temperature;BME280_humidity;BME280_pressure;Samples;Min_cycle;Max_cycle;Signal;HPM_P1;HPM_P2
2023/05/04 00:01:14;;;;;;;6.77;5.70;;;;;;;13.75;67.72;98613.25;4144484;28;21035;-78
2023/05/04 00:03:17;;;;;;;8.13;6.17;;;;;;;13.73;67.73;98613.38;4172196;28;20907;-78
2023/05/04 00:05:21;;;;;;;7.90;6.10;;;;;;;13.69;68.60;98604.03;4155509;28;21036;-78
2023/05/04 00:07:24;;;;;;;9.53;6.67;;;;;;;13.67;69.01;98605.94;4169309;28;21234;-78
2023/05/04 00:09:27;;;;;;;8.60;7.00;;;;;;;13.64;69.89;98611.41;4161054;28;20718;-78
2023/05/04 00:11:30;;;;;;;8.30;6.50;;;;;;;13.61;70.52;98608.19;4168712;28;20677;-78
2023/05/04 00:13:34;;;;;;;9.70;7.53;;;;;;;13.55;69.96;98608.63;4168607;28;20635;-78
2023/05/04 00:15:37;;;;;;;10.13;8.30;;;;;;;13.52;70.41;98603.59;4170831;28;20689;-78
2023/05/04 00:17:41;;;;;;;12.00;8.20;;;;;;;13.42;71.97;98597.31;4163639;28;20635;-78
2023/05/04 00:19:45;;;;;;;10.97;9.60;;;;;;;13.35;72.81;98595.25;4164510;28;21374;-78
2023/05/04 00:21:48;;;;;;;10.50;9.43;;;;;;;13.18;72.52;98591.25;4159870;28;20735;-78
2023/05/04 00:23:51;;;;;;;10.73;9.13;;;;;;;13.09;74.05;98598.06;4150335;28;20731;-78
2023/05/04 00:25:55;;;;;;;10.87;9.77;;;;;;;12.96;72.74;98586.75;4166030;28;20685;-78
2023/05/04 00:27:58;;;;;;;11.40;9.70;;;;;;;12.86;73.72;98583.94;4151026;28;20696;-78
2023/05/04 00:30:01;;;;;;;10.67;9.60;;;;;;;12.77;75.50;98581.09;4169190;28;20635;-78
2023/05/04 00:32:06;;;;;;;11.50;10.10;;;;;;;12.69;74.25;98580.81;4162838;28;20636;-78
2023/05/04 00:34:10;;;;;;;10.93;9.83;;;;;;;12.61;75.32;98577.84;4164271;28;20635;-78
2023/05/04 00:36:13;;;;;;;10.80;9.70;;;;;;;12.54;75.55;98579.25;4162490;28;20635;-78
2023/05/04 00:38:17;;;;;;;12.50;10.60;;;;;;;12.48;76.94;98568.34;4165643;28;20725;-78
2023/05/04 00:40:21;;;;;;;12.17;10.40;;;;;;;12.43;76.44;98570.44;4153882;28;20643;-78
2023/05/04 00:42:24;;;;;;;12.30;9.70;;;;;;;12.39;75.82;98566.38;4164017;28;20630;-78
2023/05/04 00:44:28;;;;;;;13.37;10.23;;;;;;;12.37;75.92;98560.38;4145616;28;20722;-78
2023/05/04 00:46:32;;;;;;;11.13;9.83;;;;;;;12.33;77.01;98562.38;4164620;28;20638;-78
2023/05/04 00:48:35;;;;;;;13.53;11.00;;;;;;;12.31;77.60;98563.41;4150591;28;20718;-78
2023/05/04 00:50:40;;;;;;;11.90;10.70;;;;;;;12.24;76.28;98564.78;4168162;28;20732;-78
2023/05/04 00:52:43;;;;;;;14.30;11.70;;;;;;;12.23;76.99;98563.09;4160686;28;20799;-78
2023/05/04 00:54:47;;;;;;;13.10;11.80;;;;;;;12.18;76.01;98559.97;4170681;28;21267;-78
2023/05/04 00:56:51;;;;;;;12.53;11.20;;;;;;;12.14;77.62;98555.03;4147234;28;20647;-78
2023/05/04 00:58:56;;;;;;;16.07;12.03;;;;;;;12.08;76.28;98561.50;4168495;28;21270;-78
2023/05/04 01:00:59;;;;;;;12.93;10.50;;;;;;;12.02;76.41;98567.16;4166737;28;20667;-78
2023/05/04 01:03:03;;;;;;;17.80;10.73;;;;;;;11.99;76.54;98558.69;4165978;28;20633;-78
2023/05/04 01:05:07;;;;;;;12.83;10.10;;;;;;;11.98;77.84;98567.44;4168435;28;21006;-78
2023/05/04 01:07:17;;;;;;;11.50;9.77;;;;;;;11.91;77.89;98568.81;4167665;28;21090;-78
2023/05/04 01:09:24;;;;;;;10.23;9.10;;;;;;;11.87;78.08;98560.31;4169782;28;20642;-78
2023/05/04 01:11:32;;;;;;;10.80;8.30;;;;;;;11.82;78.14;98562.41;4179970;28;20636;-78
2023/05/04 01:13:35;;;;;;;10.47;9.17;;;;;;;11.78;78.86;98560.91;4154190;28;20642;-78
2023/05/04 01:15:39;;;;;;;10.23;9.20;;;;;;;11.76;78.71;98569.81;4166326;28;20680;-78
2023/05/04 01:17:42;;;;;;;12.33;9.73;;;;;;;11.73;78.32;98570.00;4149823;28;20634;-78
2023/05/04 01:19:45;;;;;;;13.43;9.80;;;;;;;11.74;78.86;98576.06;4153250;28;20676;-78
2023/05/04 01:21:50;;;;;;;12.00;10.10;;;;;;;11.65;78.92;98569.69;4167166;28;20722;-78
2023/05/04 01:23:53;;;;;;;9.70;8.70;;;;;;;11.62;78.06;98576.88;4167193;28;20633;-78
2023/05/04 01:26:03;;;;;;;11.30;9.20;;;;;;;11.59;79.36;98579.66;4151166;28;20643;-78
2023/05/04 01:28:08;;;;;;;11.07;8.37;;;;;;;11.57;79.04;98571.94;4152012;28;21236;-78
2023/05/04 01:30:17;;;;;;;15.70;10.30;;;;;;;11.58;78.18;98573.63;4151868;28;20642;-78
2023/05/04 01:32:21;;;;;;;9.03;8.13;;;;;;;11.50;78.80;98564.59;4169785;28;20664;-78
2023/05/04 01:34:24;;;;;;;13.47;9.83;;;;;;;11.45;79.03;98574.47;4164608;28;20981;-78
2023/05/04 01:36:27;;;;;;;11.10;9.23;;;;;;;11.44;80.23;98564.94;4154689;28;20681;-78
2023/05/04 01:38:32;;;;;;;16.73;9.30;;;;;;;11.47;78.99;98565.66;4143372;28;21201;-78
2023/05/04 01:40:35;;;;;;;10.87;8.87;;;;;;;11.39;79.74;98560.03;4159965;28;20656;-78
2023/05/04 01:42:38;;;;;;;11.57;9.60;;;;;;;11.39;80.24;98562.63;4151124;28;20668;-78
2023/05/04 01:44:41;;;;;;;11.10;8.90;;;;;;;11.40;79.62;98559.09;4147371;28;20733;-78
2023/05/04 01:46:44;;;;;;;11.97;9.53;;;;;;;11.39;78.97;98561.81;4152040;28;20646;-78
2023/05/04 01:48:47;;;;;;;14.43;9.03;;;;;;;11.37;79.61;98558.47;4152779;28;20645;-78
2023/05/04 01:50:50;;;;;;;13.07;9.93;;;;;;;11.34;78.72;98553.44;4163254;28;21972;-78
2023/05/04 01:52:54;;;;;;;11.03;9.87;;;;;;;11.30;79.01;98547.53;4165289;28;21269;-78
2023/05/04 01:54:58;;;;;;;11.70;9.60;;;;;;;11.30;78.57;98551.94;4163519;28;20656;-78
2023/05/04 01:57:02;;;;;;;10.43;9.20;;;;;;;11.27;79.98;98543.47;4150872;28;20623;-78
2023/05/04 01:59:05;;;;;;;12.77;9.10;;;;;;;11.24;79.09;98541.06;4152135;28;21065;-78
2023/05/04 02:01:08;;;;;;;10.60;9.50;;;;;;;11.22;79.51;98541.16;4151854;28;20700;-78
2023/05/04 02:03:12;;;;;;;11.63;9.50;;;;;;;11.21;80.28;98542.09;4167241;28;21268;-78
2023/05/04 02:05:15;;;;;;;11.70;10.20;;;;;;;11.26;79.31;98544.41;4176134;28;21259;-78
2023/05/04 02:07:18;;;;;;;11.90;9.77;;;;;;;11.25;79.48;98550.59;4165386;28;20667;-78
2023/05/04 02:09:21;;;;;;;11.87;9.87;;;;;;;11.23;80.51;98550.69;4163542;28;20637;-78
2023/05/04 02:11:26;;;;;;;12.37;10.77;;;;;;;11.22;80.67;98546.38;4168914;28;21006;-78
2023/05/04 02:13:29;;;;;;;14.67;11.07;;;;;;;11.23;79.44;98561.13;4165462;28;20680;-78
2023/05/04 02:15:32;;;;;;;12.70;11.30;;;;;;;11.22;79.18;98562.03;4162941;28;20689;-78
2023/05/04 02:17:35;;;;;;;14.87;12.53;;;;;;;11.21;79.82;98565.59;4143606;28;21348;-78
2023/05/04 02:19:38;;;;;;;15.20;12.30;;;;;;;11.14;79.78;98560.84;4167143;28;20642;-78
2023/05/04 02:21:41;;;;;;;14.57;12.47;;;;;;;11.10;79.58;98575.03;4163740;28;20664;-78
2023/05/04 02:23:44;;;;;;;16.30;13.00;;;;;;;11.07;79.66;98570.00;4165111;28;21094;-78
2023/05/04 02:25:48;;;;;;;16.47;11.80;;;;;;;11.02;80.98;98572.91;4172914;28;20657;-78
2023/05/04 02:27:52;;;;;;;15.07;12.70;;;;;;;10.97;81.09;98572.34;4167367;28;21038;-78
2023/05/04 02:29:57;;;;;;;14.23;11.90;;;;;;;10.92;80.82;98570.97;4166835;28;21211;-78
2023/05/04 02:32:00;;;;;;;13.90;11.17;;;;;;;10.90;80.13;98567.63;4165702;28;20628;-78
2023/05/04 02:34:03;;;;;;;14.50;11.97;;;;;;;10.85;81.31;98564.44;4170619;28;20672;-78
2023/05/04 02:36:07;;;;;;;12.17;10.87;;;;;;;10.83;80.80;98561.91;4166782;28;21195;-78
2023/05/04 02:38:10;;;;;;;13.07;10.97;;;;;;;10.82;81.43;98562.88;4169665;28;20630;-78
2023/05/04 02:40:15;;;;;;;16.60;12.20;;;;;;;10.75;80.60;98558.13;4165320;28;20690;-78
2023/05/04 02:42:19;;;;;;;12.93;11.63;;;;;;;10.73;81.25;98557.34;4165430;28;21328;-78
2023/05/04 02:44:23;;;;;;;16.77;12.37;;;;;;;10.67;81.42;98549.09;4168322;28;20628;-78
2023/05/04 02:46:26;;;;;;;17.23;12.10;;;;;;;10.66;82.40;98557.81;4182852;28;20628;-78
2023/05/04 02:48:30;;;;;;;14.30;12.10;;;;;;;10.63;82.23;98550.19;4168948;28;20628;-78
2023/05/04 02:50:33;;;;;;;15.73;13.07;;;;;;;10.64;81.71;98554.47;4149725;28;21253;-78
2023/05/04 02:52:36;;;;;;;14.13;12.00;;;;;;;10.61;81.29;98546.84;4168537;28;21007;-78
2023/05/04 02:54:39;;;;;;;14.50;11.57;;;;;;;10.60;81.24;98552.97;4169272;28;20629;-78
2023/05/04 02:56:42;;;;;;;15.40;12.47;;;;;;;10.58;81.88;98560.06;4167773;28;20638;-77
2023/05/04 02:58:46;;;;;;;13.20;11.43;;;;;;;10.55;82.26;98561.09;4163326;28;21058;-78
2023/05/04 03:00:54;;;;;;;14.73;12.47;;;;;;;10.59;82.05;98557.38;4170521;28;20632;-78
2023/05/04 03:02:58;;;;;;;13.70;12.17;;;;;;;10.58;82.70;98552.25;4172627;28;21068;-78
2023/05/04 03:05:01;;;;;;;13.53;11.07;;;;;;;10.61;82.05;98549.44;4168368;28;20721;-78
2023/05/04 03:07:04;;;;;;;11.63;10.17;;;;;;;10.61;81.96;98550.28;4173268;28;20678;-78
2023/05/04 03:09:08;;;;;;;12.40;11.10;;;;;;;10.66;81.52;98542.19;4166037;28;20644;-78
2023/05/04 03:11:11;;;;;;;11.90;10.70;;;;;;;10.66;81.90;98547.41;4176223;28;20625;-78
2023/05/04 03:13:15;;;;;;;13.93;11.67;;;;;;;10.68;82.43;98556.81;4166861;28;20656;-78
2023/05/04 03:15:18;;;;;;;16.20;11.20;;;;;;;10.70;82.18;98548.91;4171785;28;20636;-78
2023/05/04 03:17:23;;;;;;;12.73;10.60;;;;;;;10.70;81.36;98548.91;4175155;28;20628;-78
2023/05/04 03:19:26;;;;;;;11.90;10.20;;;;;;;10.68;81.56;98548.16;4152741;28;21207;-78
2023/05/04 03:21:30;;;;;;;12.40;10.10;;;;;;;10.68;80.88;98548.16;4173393;28;20662;-78
2023/05/04 03:23:34;;;;;;;15.37;12.83;;;;;;;10.62;81.29;98544.16;4166721;28;20646;-78
2023/05/04 03:25:37;;;;;;;13.40;11.23;;;;;;;10.59;81.55;98543.50;4168206;28;20701;-78
2023/05/04 03:27:40;;;;;;;11.50;9.83;;;;;;;10.57;81.22;98538.38;4156223;28;20649;-78
2023/05/04 03:29:44;;;;;;;12.30;10.17;;;;;;;10.61;81.04;98545.06;4155713;28;20637;-78
2023/05/04 03:31:47;;;;;;;13.13;10.40;;;;;;;10.63;80.49;98539.75;4159499;28;20637;-78
2023/05/04 03:33:53;;;;;;;14.63;11.40;;;;;;;10.60;81.69;98539.94;4157560;28;20672;-78
2023/05/04 03:35:57;;;;;;;15.40;11.83;;;;;;;10.57;80.60;98538.38;4168356;28;21289;-78
2023/05/04 03:38:00;;;;;;;16.40;12.40;;;;;;;10.52;81.64;98535.19;4171489;28;20636;-78
2023/05/04 03:40:04;;;;;;;14.77;12.90;;;;;;;10.51;81.57;98543.16;4148840;28;20638;-78
2023/05/04 03:42:08;;;;;;;16.50;13.83;;;;;;;10.48;81.74;98535.50;4167097;28;20746;-78
2023/05/04 03:44:11;;;;;;;18.30;13.13;;;;;;;10.48;82.44;98535.50;4159459;28;21155;-78
2023/05/04 03:46:14;;;;;;;23.00;13.37;;;;;;;10.46;82.44;98539.94;4168320;28;21361;-78
2023/05/04 03:48:17;;;;;;;17.40;13.07;;;;;;;10.41;81.59;98537.63;4187139;28;20737;-78
2023/05/04 03:50:22;;;;;;;16.17;13.77;;;;;;;10.39;82.29;98536.06;4170413;28;20649;-78
2023/05/04 03:52:25;;;;;;;17.97;14.97;;;;;;;10.37;82.32;98537.91;4167915;28;20793;-78
2023/05/04 03:54:28;;;;;;;16.50;13.70;;;;;;;10.32;82.09;98530.34;4169427;28;20636;-78
2023/05/04 03:56:31;;;;;;;16.20;13.43;;;;;;;10.30;82.63;98530.53;4169303;28;20640;-78
2023/05/04 03:58:35;;;;;;;14.90;12.70;;;;;;;10.29;82.61;98537.53;4166824;28;20731;-78
2023/05/04 04:00:40;;;;;;;16.17;12.43;;;;;;;10.30;82.64;98534.00;4167123;28;20640;-78
2023/05/04 04:02:48;;;;;;;15.73;13.20;;;;;;;10.27;82.41;98542.00;4167690;28;21220;-78
2023/05/04 04:04:54;;;;;;;16.50;13.23;;;;;;;10.27;83.10;98544.63;4157347;28;21111;-77
2023/05/04 04:06:59;;;;;;;15.00;12.33;;;;;;;10.27;83.16;98541.16;4171835;28;20644;-78
2023/05/04 04:09:04;;;;;;;16.50;12.70;;;;;;;10.25;83.17;98538.63;4169026;28;20636;-78
2023/05/04 04:11:07;;;;;;;13.10;11.47;;;;;;;10.25;83.70;98535.19;4168933;28;20629;-78
2023/05/04 04:13:10;;;;;;;19.80;12.03;;;;;;;10.24;83.24;98536.97;4168376;28;20627;-78
2023/05/04 04:15:13;;;;;;;14.70;12.63;;;;;;;10.24;82.70;98536.13;4168006;28;21211;-78
2023/05/04 04:17:16;;;;;;;15.33;12.87;;;;;;;10.21;82.77;98544.97;4150056;28;20665;-78
2023/05/04 04:19:19;;;;;;;15.20;12.53;;;;;;;10.21;83.42;98541.50;4170023;28;20835;-78
2023/05/04 04:21:22;;;;;;;14.70;12.90;;;;;;;10.21;83.30;98541.50;4169757;28;21183;-78
2023/05/04 04:23:27;;;;;;;15.40;12.40;;;;;;;10.20;83.39;98543.28;4168246;28;20674;-78
2023/05/04 04:25:30;;;;;;;17.87;13.20;;;;;;;10.20;83.87;98548.50;4172149;28;21568;-78
2023/05/04 04:27:37;;;;;;;15.97;12.80;;;;;;;10.21;83.39;98538.91;4165006;28;20652;-78
2023/05/04 04:29:40;;;;;;;16.17;13.13;;;;;;;10.23;83.94;98543.13;4152196;28;20642;-78
2023/05/04 04:31:43;;;;;;;14.83;13.10;;;;;;;10.28;83.49;98535.84;4164807;28;21046;-78
2023/05/04 04:33:47;;;;;;;16.10;13.23;;;;;;;10.24;83.22;98539.59;4172288;28;21277;-78
2023/05/04 04:35:50;;;;;;;17.10;13.73;;;;;;;10.16;83.05;98530.53;4169151;28;20626;-78
2023/05/04 04:37:53;;;;;;;16.93;14.50;;;;;;;10.14;83.42;98537.63;4149068;28;20646;-78
2023/05/04 04:39:58;;;;;;;17.97;13.63;;;;;;;10.13;83.77;98539.41;4170148;28;20659;-78
2023/05/04 04:42:01;;;;;;;16.73;13.50;;;;;;;10.18;83.48;98537.34;4171579;28;20687;-78
2023/05/04 04:44:04;;;;;;;18.13;13.37;;;;;;;10.20;83.64;98537.25;4167645;28;21191;-78
2023/05/04 04:46:08;;;;;;;17.70;13.77;;;;;;;10.22;83.89;98538.81;4166921;28;20648;-78
2023/05/04 04:48:11;;;;;;;16.87;12.70;;;;;;;10.29;84.23;98545.34;4169931;28;24616;-78
2023/05/04 04:50:14;;;;;;;17.97;13.27;;;;;;;10.35;84.14;98543.22;4169357;28;21031;-78
2023/05/04 04:52:17;;;;;;;19.57;14.33;;;;;;;10.38;83.74;98543.03;4168808;28;20679;-78
2023/05/04 04:54:21;;;;;;;14.80;12.77;;;;;;;10.45;84.16;98540.91;4165827;28;20652;-78
2023/05/04 04:56:25;;;;;;;15.10;12.87;;;;;;;10.51;83.67;98538.75;4169726;28;20636;-78
2023/05/04 04:58:28;;;;;;;15.13;12.87;;;;;;;10.57;83.98;98537.53;4161586;28;20641;-78
2023/05/04 05:00:31;;;;;;;15.63;12.57;;;;;;;10.63;83.95;98548.44;4168668;28;20652;-81
2023/05/04 05:02:35;;;;;;;15.10;12.83;;;;;;;10.68;83.54;98548.16;4154996;28;21363;-81
2023/05/04 05:04:39;;;;;;;17.37;13.47;;;;;;;10.72;82.74;98550.50;4168120;28;21368;-81
2023/05/04 05:06:42;;;;;;;20.10;13.40;;;;;;;10.80;82.67;98547.41;4170262;28;20642;-81
2023/05/04 05:08:46;;;;;;;15.97;12.47;;;;;;;10.83;83.18;98550.66;4166022;28;20977;-81
2023/05/04 05:10:49;;;;;;;15.47;13.27;;;;;;;10.89;82.04;98551.09;4146100;28;20724;-81
2023/05/04 05:12:53;;;;;;;15.77;13.03;;;;;;;10.97;82.37;98550.63;4162307;28;21210;-81
2023/05/04 05:14:56;;;;;;;15.13;12.30;;;;;;;11.00;82.26;98547.81;4150002;28;20715;-81
2023/05/04 05:17:02;;;;;;;14.03;12.47;;;;;;;11.03;82.85;98548.47;4169256;28;20977;-81
2023/05/04 05:19:05;;;;;;;14.97;12.10;;;;;;;11.13;81.69;98540.91;4171089;28;20755;-81
2023/05/04 05:21:09;;;;;;;13.23;11.80;;;;;;;11.24;81.97;98535.84;4173437;28;20624;-81
2023/05/04 05:23:12;;;;;;;14.40;12.80;;;;;;;11.34;81.89;98545.59;4167405;28;20655;-81
2023/05/04 05:25:16;;;;;;;14.97;12.77;;;;;;;11.45;81.51;98545.75;4164207;28;21207;-81
2023/05/04 05:27:19;;;;;;;15.13;12.27;;;;;;;11.64;82.94;98546.28;4168511;28;20982;-81
2023/05/04 05:29:23;;;;;;;20.13;13.67;;;;;;;11.84;83.08;98544.84;4164600;28;20717;-81
2023/05/04 05:31:27;;;;;;;13.53;11.20;;;;;;;12.06;82.17;98544.28;4161306;28;21011;-81
2023/05/04 05:33:30;;;;;;;14.10;11.70;;;;;;;12.23;80.54;98548.25;4166033;28;21020;-81
2023/05/04 05:35:33;;;;;;;13.83;10.83;;;;;;;12.40;80.64;98554.94;4173484;28;20648;-81
2023/05/04 05:37:36;;;;;;;15.53;12.57;;;;;;;12.67;79.27;98560.91;4150196;28;20696;-82
2023/05/04 05:39:39;;;;;;;16.43;12.80;;;;;;;12.90;78.58;98564.47;4167306;28;21119;-81
2023/05/04 05:41:42;;;;;;;17.63;13.57;;;;;;;13.03;77.01;98565.28;4165559;28;20634;-82
2023/05/04 05:43:46;;;;;;;13.67;12.20;;;;;;;13.22;78.51;98571.72;4164412;28;21107;-80
2023/05/04 05:45:50;;;;;;;12.93;11.53;;;;;;;13.49;77.58;98574.16;4162965;28;20625;-80
2023/05/04 05:47:53;;;;;;;13.40;11.63;;;;;;;13.81;77.60;98574.31;4165183;28;20622;-81
2023/05/04 05:49:56;;;;;;;15.70;11.50;;;;;;;14.01;76.19;98576.31;4170226;28;20667;-81
2023/05/04 05:51:59;;;;;;;14.80;12.53;;;;;;;14.16;75.63;98581.28;4164873;28;20633;-81
2023/05/04 05:54:03;;;;;;;12.33;10.63;;;;;;;14.40;74.03;98583.84;4166559;28;20682;-80
2023/05/04 05:56:06;;;;;;;14.33;10.90;;;;;;;14.64;73.27;98588.91;4161976;28;20646;-80
2023/05/04 05:58:10;;;;;;;16.47;10.80;;;;;;;14.90;73.16;98573.75;4160251;28;21058;-80
2023/05/04 06:00:14;;;;;;;12.00;10.70;;;;;;;15.15;71.35;98584.84;4165685;28;20627;-80
2023/05/04 06:02:18;;;;;;;13.80;10.93;;;;;;;15.45;72.58;98593.81;4155007;28;21211;-81
2023/05/04 06:04:21;;;;;;;14.40;10.87;;;;;;;15.76;71.59;98580.69;4156893;28;20659;-81
2023/05/04 06:06:25;;;;;;;13.00;11.27;;;;;;;16.03;70.52;98583.72;4166259;28;20659;-81
2023/05/04 06:08:28;;;;;;;13.27;10.87;;;;;;;16.28;69.92;98578.13;4167554;28;20734;-81
2023/05/04 06:10:31;;;;;;;13.07;10.83;;;;;;;16.51;69.96;98583.97;4169860;28;20647;-81
2023/05/04 06:12:34;;;;;;;11.27;10.17;;;;;;;16.68;67.55;98585.19;4167658;28;20628;-81
2023/05/04 06:14:37;;;;;;;12.97;10.80;;;;;;;16.97;69.43;98580.88;4168436;28;20773;-81
2023/05/04 06:16:40;;;;;;;12.10;9.67;;;;;;;17.16;68.46;98587.09;4184216;28;20644;-80
2023/05/04 06:18:45;;;;;;;11.27;9.93;;;;;;;17.35;65.93;98593.28;4166507;28;20640;-82
2023/05/04 06:20:48;;;;;;;11.50;9.80;;;;;;;17.50;66.54;98584.03;4168694;28;20624;-82
2023/05/04 06:22:51;;;;;;;11.30;10.20;;;;;;;17.74;66.40;98601.16;4152262;28;20641;-80
2023/05/04 06:24:54;;;;;;;18.60;10.23;;;;;;;17.97;66.15;98584.09;4157154;28;20636;-80
2023/05/04 06:27:06;;;;;;;12.40;10.13;;;;;;;18.20;66.39;98585.53;4171125;28;20633;-80
2023/05/04 06:29:09;;;;;;;12.43;10.40;;;;;;;18.38;65.81;98581.22;4167830;28;20642;-81
2023/05/04 06:31:12;;;;;;;12.77;10.03;;;;;;;18.57;65.38;98588.13;4173466;28;20654;-82
2023/05/04 06:33:16;;;;;;;11.03;9.83;;;;;;;18.51;63.69;98585.22;4167624;28;20748;-82
2023/05/04 06:35:20;;;;;;;11.63;10.20;;;;;;;18.40;64.50;98580.06;4176524;28;20680;-81
2023/05/04 06:37:23;;;;;;;11.97;10.77;;;;;;;18.58;64.79;98584.53;4173173;28;20682;-82
2023/05/04 06:39:27;;;;;;;10.57;9.53;;;;;;;18.85;64.23;98587.22;4170030;28;20632;-82
2023/05/04 06:41:30;;;;;;;13.23;10.67;;;;;;;19.07;65.09;98589.56;4158051;28;20644;-82
2023/05/04 06:43:33;;;;;;;12.03;10.50;;;;;;;19.23;65.07;98595.06;4185282;28;21237;-83
2023/05/04 06:45:36;;;;;;;14.77;11.63;;;;;;;19.28;65.26;98590.19;4174266;28;20676;-82
2023/05/04 06:47:40;;;;;;;13.30;12.00;;;;;;;19.46;65.67;98594.53;4172910;28;20638;-82
2023/05/04 06:49:43;;;;;;;12.33;11.10;;;;;;;19.53;62.80;98596.44;4167906;28;20624;-82
2023/05/04 06:51:48;;;;;;;13.30;12.00;;;;;;;19.53;64.01;98590.31;4170118;28;20632;-82
2023/05/04 06:53:52;;;;;;;16.80;11.80;;;;;;;19.52;63.98;98593.94;4168368;28;20628;-82
2023/05/04 06:55:55;;;;;;;11.27;10.03;;;;;;;19.61;64.22;98601.84;4172317;28;20621;-82
2023/05/04 06:57:58;;;;;;;11.90;9.10;;;;;;;19.90;61.84;98595.41;4160149;28;20639;-82
2023/05/04 07:00:03;;;;;;;12.70;10.43;;;;;;;20.13;61.71;98601.09;4170303;28;20639;-82
2023/05/04 07:02:07;;;;;;;11.87;10.67;;;;;;;20.23;62.68;98599.22;4189256;28;20692;-82
2023/05/04 07:04:10;;;;;;;11.13;10.13;;;;;;;20.48;61.79;98597.44;4174067;28;20656;-82
2023/05/04 07:06:13;;;;;;;10.47;9.40;;;;;;;20.77;62.49;98595.38;4175325;28;20650;-82
2023/05/04 07:08:18;;;;;;;10.70;9.70;;;;;;;20.87;61.31;98598.78;4150654;28;20719;-82
2023/05/04 07:10:21;;;;;;;11.03;9.93;;;;;;;21.02;59.51;98597.22;4171381;28;20735;-82
2023/05/04 07:12:25;;;;;;;10.37;9.37;;;;;;;20.90;59.98;98583.38;4173661;28;20648;-82
2023/05/04 07:14:28;;;;;;;11.23;10.13;;;;;;;21.10;60.64;98594.59;4168208;28;20658;-81
2023/05/04 07:16:31;;;;;;;10.67;9.50;;;;;;;21.28;60.09;98590.88;4167561;28;21226;-81
2023/05/04 07:18:35;;;;;;;11.83;10.00;;;;;;;21.20;58.98;98595.31;4165127;28;20632;-81
2023/05/04 07:20:42;;;;;;;11.17;9.53;;;;;;;21.10;60.43;98584.00;4164427;28;20633;-81
2023/05/04 07:22:45;;;;;;;12.23;9.00;;;;;;;21.22;59.17;98593.34;4150272;28;20645;-81
2023/05/04 07:24:49;;;;;;;11.10;10.00;;;;;;;21.37;58.97;98598.72;4174937;28;20744;-81
2023/05/04 07:26:52;;;;;;;12.27;9.43;;;;;;;21.42;60.17;98593.78;4173722;28;21368;-81
2023/05/04 07:28:55;;;;;;;10.20;9.27;;;;;;;21.69;60.98;98604.19;4171402;28;20654;-81
2023/05/04 07:30:59;;;;;;;12.90;9.93;;;;;;;21.73;59.44;98599.41;4169820;28;20645;-81
2023/05/04 07:33:02;;;;;;;10.70;9.60;;;;;;;21.93;58.63;98598.94;4168736;28;20658;-81
2023/05/04 07:35:06;;;;;;;11.47;10.27;;;;;;;21.89;59.30;98597.59;4166582;28;20632;-81
2023/05/04 07:37:09;;;;;;;11.33;10.23;;;;;;;22.04;61.46;98598.63;4169976;28;20636;-81
2023/05/04 07:39:12;;;;;;;10.60;9.60;;;;;;;22.04;58.60;98590.66;4170882;28;20647;-82
2023/05/04 07:41:16;;;;;;;10.40;9.43;;;;;;;21.87;58.98;98576.50;4165036;28;20622;-81
2023/05/04 07:43:19;;;;;;;11.20;10.10;;;;;;;21.88;58.88;98582.66;4172923;28;20647;-81
2023/05/04 07:45:22;;;;;;;11.07;9.97;;;;;;;21.81;59.65;98586.97;4171415;28;20659;-81
2023/05/04 07:47:26;;;;;;;12.60;9.33;;;;;;;21.75;59.32;98576.97;4169743;28;21285;-81
2023/05/04 07:49:29;;;;;;;9.87;8.77;;;;;;;21.87;60.00;98570.38;4168729;28;20733;-81
2023/05/04 07:51:32;;;;;;;10.47;9.47;;;;;;;22.07;58.95;98577.03;4148134;28;20644;-81
2023/05/04 07:53:35;;;;;;;10.67;9.77;;;;;;;22.12;58.52;98572.09;4169663;28;20655;-81
2023/05/04 07:55:39;;;;;;;10.87;9.87;;;;;;;21.86;59.32;98568.69;4168937;28;21602;-81
2023/05/04 07:57:43;;;;;;;12.60;8.90;;;;;;;21.77;59.03;98578.50;4171505;28;20733;-81
2023/05/04 07:59:46;;;;;;;9.60;8.60;;;;;;;21.87;59.80;98573.03;4165703;28;20693;-81
2023/05/04 08:01:49;;;;;;;10.23;8.53;;;;;;;21.94;59.77;98571.41;4173447;28;20653;-81
2023/05/04 08:03:52;;;;;;;9.40;8.50;;;;;;;22.07;59.45;98571.72;4172466;28;20638;-81
2023/05/04 08:05:55;;;;;;;9.20;8.40;;;;;;;22.12;58.52;98564.13;4157710;28;20679;-81
2023/05/04 08:07:59;;;;;;;8.80;7.90;;;;;;;22.10;59.03;98572.25;4172866;28;20646;-81
2023/05/04 08:10:02;;;;;;;9.20;8.30;;;;;;;22.33;60.62;98578.63;4172045;28;21028;-81
2023/05/04 08:12:06;;;;;;;9.97;8.97;;;;;;;22.44;59.09;98576.44;4171797;28;21237;-81
2023/05/04 08:14:11;;;;;;;10.47;9.47;;;;;;;22.53;59.82;98577.28;4165555;28;20677;-81
2023/05/04 08:16:14;;;;;;;8.77;7.97;;;;;;;22.67;58.92;98582.75;4154703;28;21066;-82
2023/05/04 08:18:18;;;;;;;8.10;7.13;;;;;;;22.61;56.31;98574.63;4176599;28;20630;-81
2023/05/04 08:20:21;;;;;;;8.17;7.37;;;;;;;22.69;55.74;98579.91;4156305;28;20654;-81
2023/05/04 08:22:25;;;;;;;7.60;6.57;;;;;;;22.84;56.98;98574.59;4165058;28;21014;-82
2023/05/04 08:24:29;;;;;;;8.03;7.23;;;;;;;23.06;56.01;98591.72;4175146;28;20721;-81
2023/05/04 08:26:33;;;;;;;7.20;6.60;;;;;;;23.14;55.31;98581.03;4161751;28;20625;-81
2023/05/04 08:28:37;;;;;;;7.93;7.23;;;;;;;23.12;55.43;98572.41;4175404;28;21334;-82
2023/05/04 08:30:42;;;;;;;8.17;7.10;;;;;;;23.15;55.00;98561.41;4157191;28;20666;-82
2023/05/04 08:32:47;;;;;;;8.07;7.20;;;;;;;23.01;56.04;98562.13;4171937;28;20738;-82
2023/05/04 08:34:50;;;;;;;7.50;6.80;;;;;;;23.25;57.39;98558.38;4169485;28;20630;-82
2023/05/04 08:36:53;;;;;;;8.17;7.40;;;;;;;23.41;54.83;98568.97;4170470;28;20634;-82
2023/05/04 08:38:56;;;;;;;8.23;6.93;;;;;;;23.46;56.10;98568.47;4154181;28;21085;-82
2023/05/04 08:41:02;;;;;;;7.67;6.93;;;;;;;23.55;54.72;98570.09;4173133;28;20656;-81
2023/05/04 08:43:05;;;;;;;6.97;6.30;;;;;;;23.52;54.73;98565.94;4167562;28;20665;-82
2023/05/04 08:45:09;;;;;;;7.80;7.00;;;;;;;23.58;54.75;98561.75;4171399;28;21115;-81
2023/05/04 08:47:13;;;;;;;7.70;6.97;;;;;;;23.63;54.29;98562.88;4173739;28;20628;-81
2023/05/04 08:49:16;;;;;;;9.00;8.10;;;;;;;23.61;54.87;98564.06;4161614;28;20669;-81
2023/05/04 08:51:20;;;;;;;7.60;6.87;;;;;;;23.50;54.11;98562.63;4158423;28;20689;-81
2023/05/04 08:53:23;;;;;;;6.60;6.00;;;;;;;23.43;53.21;98569.63;4169735;28;20706;-81
2023/05/04 08:55:27;;;;;;;7.17;6.47;;;;;;;23.41;53.57;98566.31;4167021;28;20642;-81
2023/05/04 08:57:30;;;;;;;7.80;7.10;;;;;;;23.46;54.06;98568.47;4156397;28;20633;-82
2023/05/04 08:59:33;;;;;;;9.33;6.87;;;;;;;23.54;54.33;98566.56;4169375;28;21398;-81
2023/05/04 09:01:38;;;;;;;8.00;6.40;;;;;;;23.58;54.89;98553.75;4164398;28;20662;-81
2023/05/04 09:03:43;;;;;;;8.20;6.37;;;;;;;23.67;54.05;98549.06;4176155;28;20625;-81
2023/05/04 09:05:46;;;;;;;6.77;6.13;;;;;;;23.70;55.20;98548.72;4166550;28;20669;-81
2023/05/04 09:07:51;;;;;;;7.80;7.03;;;;;;;23.76;53.60;98541.88;4170603;28;21543;-81
2023/05/04 09:09:55;;;;;;;6.80;6.20;;;;;;;23.76;52.91;98541.88;4177565;28;20634;-80
2023/05/04 09:11:59;;;;;;;7.70;6.67;;;;;;;23.70;54.28;98543.38;4151872;28;20633;-80
2023/05/04 09:14:02;;;;;;;6.77;6.17;;;;;;;23.46;53.68;98534.66;4168833;28;20632;-80
2023/05/04 09:16:06;;;;;;;10.10;7.50;;;;;;;23.26;53.05;98533.41;4183976;28;21059;-80
2023/05/04 09:18:10;;;;;;;6.87;6.20;;;;;;;23.34;55.23;98530.72;4163432;28;20637;-80
2023/05/04 09:20:15;;;;;;;7.13;6.47;;;;;;;23.46;52.81;98523.19;4165133;28;20621;-81
2023/05/04 09:22:19;;;;;;;9.03;7.10;;;;;;;23.49;54.20;98525.50;4142737;28;20645;-81
2023/05/04 09:24:28;;;;;;;7.50;6.37;;;;;;;23.41;53.71;98518.38;4170794;28;20933;-80
2023/05/04 09:26:33;;;;;;;6.93;6.33;;;;;;;23.32;54.03;98521.25;4169674;28;20656;-81
2023/05/04 09:28:37;;;;;;;6.53;5.77;;;;;;;23.28;53.86;98518.09;4156302;28;20635;-81
2023/05/04 09:30:41;;;;;;;7.33;6.63;;;;;;;23.36;53.25;98503.91;4156113;28;20725;-81
2023/05/04 09:32:48;;;;;;;6.90;6.20;;;;;;;23.38;52.89;98508.06;4169623;28;21122;-81